Aviation Digital Data Service (ADDS)

Output produced by METARs form (0849 UTC 18 February 2019)
found at http://www.aviationweather.gov/metar/data/
 
Forecast for: TNCA (QUEEN BEATRIX , AW)
Text: TAF TNCA 180400Z 1806/1906 09022G33KT 9999 SCT018
Forecast period: 0600 UTC 18 February 2019 to 0600 UTC 19 February 2019
Forecast type: FROM: standard forecast or significant change
Winds: from the E (90 degrees) at 25 MPH (22 knots; 11.3 m/s)
gusting to 38 MPH (33 knots; 17.0 m/s)
Visibility: 6 or more miles 10+ km)
Ceiling: at least 12,000 feet AGL
Clouds: scattered clouds at 1800 feet AGL
Weather: no significant weather forecast for this period
Text: TEMPO 1806/1816 BKN014
Forecast period: 0600 to 1600 UTC 18 February 2019
Forecast type: TEMPORARY: The following changes expected for less than half the time period
Visibility: missing
Ceiling: 1400 feet AGL
Clouds: broken clouds at 1400 feet AGL
Weather: no significant weather forecast for this period